PWSweather.com
Personal Weather Stations
Station Observations
KVAGLENALL
West Henrico, Glen Allen, VA 23060-6503

West HenricoGlen Allen, VA 23060-6503

Lat: 37.6554, Lon: -77.5693

Elevation: 273

Station Type: Davis Vantage Pro II

www.glenallenweather.com

High Low Average
Temperature 80.1°F26.7°C 61.2°F16.2°C 69.8°F21.0°C
Dew Point 67.7°F19.8°C 60.1°F15.6°C 63.9°F17.7°C
Winds 17.0 mph 27.4 kmh Calm Calm 6.0 mph SSW9.7 kmh SSW
Wind Gusts 22.2 mph35.7 kmh 2.0 mph3.2 kmh 10.0 mph16.1 kmh
Humidity 97% 61% 83%
Pressure 30.43 in1030.5 mb 30.32 in1026.8 mb -
Precipitation 0.00 in0.0 mm - -
Hour Temp Dew Point Humidity Winds Wind Gusts Pressure Precip Precip Rate Daily Precip Total
12:00 AM 62.9°F17.2°C 61.2°F16.2°C 94% 3.0 mph SSW4.8 kmh SSW 7.1 mph11.4 kmh 30.40 in1029.5 mb 0.00 in0.0 mm 0.00 in0.0 mm 0.00 in0.0 mm
12:15 AM 62.8°F17.1°C 61.4°F16.3°C 95% 1.0 mph S1.6 kmh S 5.1 mph8.2 kmh 30.39 in1029.1 mb 0.00 in0.0 mm 0.00 in0.0 mm 0.00 in0.0 mm
12:30 AM 62.1°F16.7°C 60.7°F15.9°C 95% 3.0 mph S4.8 kmh S 4.0 mph6.4 kmh 30.39 in1029.1 mb 0.00 in0.0 mm 0.00 in0.0 mm 0.00 in0.0 mm
12:45 AM 61.7°F16.5°C 60.6°F15.9°C 96% Calm Calm 2.0 mph3.2 kmh 30.39 in1029.1 mb 0.00 in0.0 mm 0.00 in0.0 mm 0.00 in0.0 mm
01:00 AM 61.2°F16.2°C 60.1°F15.6°C 96% 1.0 mph S1.6 kmh S 2.0 mph3.2 kmh 30.39 in1029.1 mb 0.00 in0.0 mm 0.00 in0.0 mm 0.00 in0.0 mm
01:15 AM 61.2°F16.2°C 60.1°F15.6°C 96% 3.0 mph S4.8 kmh S 5.1 mph8.2 kmh 30.39 in1029.1 mb 0.00 in0.0 mm 0.00 in0.0 mm 0.00 in0.0 mm
01:30 AM 61.7°F16.5°C 60.9°F16.1°C 97% 4.0 mph SW6.4 kmh SW 6.1 mph9.8 kmh 30.39 in1029.1 mb 0.00 in0.0 mm 0.00 in0.0 mm 0.00 in0.0 mm
01:45 AM 62.0°F16.7°C 61.2°F16.2°C 97% 4.0 mph SW6.4 kmh SW 6.1 mph9.8 kmh 30.39 in1029.1 mb 0.00 in0.0 mm 0.00 in0.0 mm 0.00 in0.0 mm
02:00 AM 62.3°F16.8°C 61.2°F16.2°C 96% 4.0 mph SSW6.4 kmh SSW 9.1 mph14.6 kmh 30.38 in1028.8 mb 0.00 in0.0 mm 0.00 in0.0 mm 0.00 in0.0 mm
02:15 AM 62.5°F16.9°C 61.1°F16.2°C 95% 3.0 mph SSW4.8 kmh SSW 10.1 mph16.3 kmh 30.37 in1028.4 mb 0.00 in0.0 mm 0.00 in0.0 mm 0.00 in0.0 mm
02:30 AM 62.4°F16.9°C 61.0°F16.1°C 95% 7.0 mph S11.3 kmh S 10.1 mph16.3 kmh 30.37 in1028.4 mb 0.00 in0.0 mm 0.00 in0.0 mm 0.00 in0.0 mm
02:45 AM 62.5°F16.9°C 61.1°F16.2°C 95% 4.0 mph SSW6.4 kmh SSW 8.1 mph13.0 kmh 30.37 in1028.4 mb 0.00 in0.0 mm 0.00 in0.0 mm 0.00 in0.0 mm
03:00 AM 62.7°F17.1°C 61.3°F16.3°C 95% 7.0 mph S11.3 kmh S 12.1 mph19.5 kmh 30.37 in1028.4 mb 0.00 in0.0 mm 0.00 in0.0 mm 0.00 in0.0 mm
03:15 AM 62.5°F16.9°C 61.1°F16.2°C 95% 4.0 mph SW6.4 kmh SW 7.1 mph11.4 kmh 30.37 in1028.4 mb 0.00 in0.0 mm 0.00 in0.0 mm 0.00 in0.0 mm
03:30 AM 62.7°F17.1°C 61.3°F16.3°C 95% 6.0 mph S9.7 kmh S 10.1 mph16.3 kmh 30.38 in1028.8 mb 0.00 in0.0 mm 0.00 in0.0 mm 0.00 in0.0 mm
03:45 AM 62.5°F16.9°C 61.1°F16.2°C 95% 4.0 mph SW6.4 kmh SW 6.1 mph9.8 kmh 30.38 in1028.8 mb 0.00 in0.0 mm 0.00 in0.0 mm 0.00 in0.0 mm
04:00 AM 62.4°F16.9°C 61.3°F16.3°C 96% 6.0 mph SSW9.7 kmh SSW 8.1 mph13.0 kmh 30.38 in1028.8 mb 0.00 in0.0 mm 0.00 in0.0 mm 0.00 in0.0 mm
04:15 AM 62.9°F17.2°C 61.5°F16.4°C 95% 3.0 mph SSW4.8 kmh SSW 8.1 mph13.0 kmh 30.39 in1029.1 mb 0.00 in0.0 mm 0.00 in0.0 mm 0.00 in0.0 mm
04:30 AM 63.1°F17.3°C 61.7°F16.5°C 95% 4.0 mph SW6.4 kmh SW 8.1 mph13.0 kmh 30.39 in1029.1 mb 0.00 in0.0 mm 0.00 in0.0 mm 0.00 in0.0 mm
04:45 AM 63.5°F17.5°C 62.1°F16.7°C 95% 4.0 mph WSW6.4 kmh WSW 7.1 mph11.4 kmh 30.39 in1029.1 mb 0.00 in0.0 mm 0.00 in0.0 mm 0.00 in0.0 mm
05:00 AM 64.1°F17.8°C 62.4°F16.9°C 94% 5.0 mph SW8.0 kmh SW 10.1 mph16.3 kmh 30.38 in1028.8 mb 0.00 in0.0 mm 0.00 in0.0 mm 0.00 in0.0 mm
05:15 AM 64.2°F17.9°C 62.5°F16.9°C 94% 3.0 mph SW4.8 kmh SW 9.1 mph14.6 kmh 30.39 in1029.1 mb 0.00 in0.0 mm 0.00 in0.0 mm 0.00 in0.0 mm
05:30 AM 64.2°F17.9°C 62.5°F16.9°C 94% 5.0 mph WSW8.0 kmh WSW 9.1 mph14.6 kmh 30.39 in1029.1 mb 0.00 in0.0 mm 0.00 in0.0 mm 0.00 in0.0 mm
05:45 AM 64.3°F17.9°C 62.6°F17.0°C 94% 4.0 mph WSW6.4 kmh WSW 13.1 mph21.1 kmh 30.39 in1029.1 mb 0.00 in0.0 mm 0.00 in0.0 mm 0.00 in0.0 mm
06:00 AM 64.3°F17.9°C 62.6°F17.0°C 94% 8.0 mph SW12.9 kmh SW 13.1 mph21.1 kmh 30.40 in1029.5 mb 0.00 in0.0 mm 0.00 in0.0 mm 0.00 in0.0 mm
06:15 AM 64.4°F18.0°C 62.7°F17.1°C 94% 5.0 mph SW8.0 kmh SW 10.1 mph16.3 kmh 30.40 in1029.5 mb 0.00 in0.0 mm 0.00 in0.0 mm 0.00 in0.0 mm
06:30 AM 64.5°F18.1°C 62.8°F17.1°C 94% 11.0 mph SW17.7 kmh SW 12.1 mph19.5 kmh 30.40 in1029.5 mb 0.00 in0.0 mm 0.00 in0.0 mm 0.00 in0.0 mm
06:45 AM 64.5°F18.1°C 62.8°F17.1°C 94% 9.0 mph S14.5 kmh S 9.1 mph14.6 kmh 30.41 in1029.8 mb 0.00 in0.0 mm 0.00 in0.0 mm 0.00 in0.0 mm
07:00 AM 64.6°F18.1°C 62.9°F17.2°C 94% 12.0 mph S19.3 kmh S 14.1 mph22.7 kmh 30.40 in1029.5 mb 0.00 in0.0 mm 0.00 in0.0 mm 0.00 in0.0 mm
07:15 AM 64.7°F18.2°C 63.0°F17.2°C 94% 6.0 mph SSW9.7 kmh SSW 12.1 mph19.5 kmh 30.41 in1029.8 mb 0.00 in0.0 mm 0.00 in0.0 mm 0.00 in0.0 mm
07:30 AM 64.8°F18.2°C 63.1°F17.3°C 94% 10.0 mph SSW16.1 kmh SSW 15.1 mph24.3 kmh 30.41 in1029.8 mb 0.00 in0.0 mm 0.00 in0.0 mm 0.00 in0.0 mm
07:45 AM 65.0°F18.3°C 63.0°F17.2°C 93% 5.0 mph S8.0 kmh S 12.1 mph19.5 kmh 30.41 in1029.8 mb 0.00 in0.0 mm 0.00 in0.0 mm 0.00 in0.0 mm
08:00 AM 65.8°F18.8°C 63.8°F17.7°C 93% 5.0 mph SW8.0 kmh SW 8.1 mph13.0 kmh 30.41 in1029.8 mb 0.00 in0.0 mm 0.00 in0.0 mm 0.00 in0.0 mm
08:15 AM 67.1°F19.5°C 64.1°F17.8°C 90% 5.0 mph SW8.0 kmh SW 10.1 mph16.3 kmh 30.41 in1029.8 mb 0.00 in0.0 mm 0.00 in0.0 mm 0.00 in0.0 mm
08:30 AM 67.7°F19.8°C 64.1°F17.8°C 88% 6.0 mph SSW9.7 kmh SSW 13.1 mph21.1 kmh 30.41 in1029.8 mb 0.00 in0.0 mm 0.00 in0.0 mm 0.00 in0.0 mm
08:45 AM 67.5°F19.7°C 63.9°F17.7°C 88% 10.0 mph S16.1 kmh S 12.1 mph19.5 kmh 30.42 in1030.1 mb 0.00 in0.0 mm 0.00 in0.0 mm 0.00 in0.0 mm
09:00 AM 67.2°F19.6°C 63.9°F17.7°C 89% 9.0 mph SW14.5 kmh SW 9.1 mph14.6 kmh 30.42 in1030.1 mb 0.00 in0.0 mm 0.00 in0.0 mm 0.00 in0.0 mm
09:15 AM 67.2°F19.6°C 63.9°F17.7°C 89% 8.0 mph SSW12.9 kmh SSW 10.1 mph16.3 kmh 30.43 in1030.5 mb 0.00 in0.0 mm 0.00 in0.0 mm 0.00 in0.0 mm
09:30 AM 67.5°F19.7°C 63.9°F17.7°C 88% 5.0 mph SW8.0 kmh SW 10.1 mph16.3 kmh 30.42 in1030.1 mb 0.00 in0.0 mm 0.00 in0.0 mm 0.00 in0.0 mm
09:45 AM 68.0°F20.0°C 64.0°F17.8°C 87% 13.0 mph SW20.9 kmh SW 13.1 mph21.1 kmh 30.43 in1030.5 mb 0.00 in0.0 mm 0.00 in0.0 mm 0.00 in0.0 mm
10:00 AM 69.8°F21.0°C 65.4°F18.6°C 86% 5.0 mph S8.0 kmh S 12.1 mph19.5 kmh 30.43 in1030.5 mb 0.00 in0.0 mm 0.00 in0.0 mm 0.00 in0.0 mm
10:15 AM 71.4°F21.9°C 65.9°F18.8°C 83% 4.0 mph SSW6.4 kmh SSW 9.1 mph14.6 kmh 30.42 in1030.1 mb 0.00 in0.0 mm 0.00 in0.0 mm 0.00 in0.0 mm
10:30 AM 72.2°F22.3°C 65.3°F18.5°C 79% 7.0 mph SW11.3 kmh SW 18.2 mph29.3 kmh 30.42 in1030.1 mb 0.00 in0.0 mm 0.00 in0.0 mm 0.00 in0.0 mm
10:45 AM 72.3°F22.4°C 65.4°F18.6°C 79% 9.0 mph WSW14.5 kmh WSW 10.1 mph16.3 kmh 30.42 in1030.1 mb 0.00 in0.0 mm 0.00 in0.0 mm 0.00 in0.0 mm
11:00 AM 72.8°F22.7°C 65.5°F18.6°C 78% 9.0 mph SW14.5 kmh SW 11.1 mph17.9 kmh 30.42 in1030.1 mb 0.00 in0.0 mm 0.00 in0.0 mm 0.00 in0.0 mm
11:15 AM 72.8°F22.7°C 65.5°F18.6°C 78% 10.0 mph WNW16.1 kmh WNW 16.2 mph26.1 kmh 30.41 in1029.8 mb 0.00 in0.0 mm 0.00 in0.0 mm 0.00 in0.0 mm
11:30 AM 75.0°F23.9°C 66.1°F18.9°C 74% 11.0 mph SSW17.7 kmh SSW 16.2 mph26.1 kmh 30.41 in1029.8 mb 0.00 in0.0 mm 0.00 in0.0 mm 0.00 in0.0 mm
11:45 AM 76.0°F24.4°C 66.7°F19.3°C 73% 9.0 mph SW14.5 kmh SW 9.1 mph14.6 kmh 30.40 in1029.5 mb 0.00 in0.0 mm 0.00 in0.0 mm 0.00 in0.0 mm
12:00 PM 77.0°F25.0°C 67.7°F19.8°C 73% 6.0 mph S9.7 kmh S 13.1 mph21.1 kmh 30.39 in1029.1 mb 0.00 in0.0 mm 0.00 in0.0 mm 0.00 in0.0 mm
12:15 PM 76.6°F24.8°C 66.1°F18.9°C 70% 8.0 mph SW12.9 kmh SW 18.2 mph29.3 kmh 30.39 in1029.1 mb 0.00 in0.0 mm 0.00 in0.0 mm 0.00 in0.0 mm
12:30 PM 76.1°F24.5°C 65.6°F18.7°C 70% 7.0 mph SW11.3 kmh SW 17.2 mph27.7 kmh 30.38 in1028.8 mb 0.00 in0.0 mm 0.00 in0.0 mm 0.00 in0.0 mm
12:45 PM 77.1°F25.1°C 66.1°F18.9°C 69% 11.0 mph SW17.7 kmh SW 18.2 mph29.3 kmh 30.37 in1028.4 mb 0.00 in0.0 mm 0.00 in0.0 mm 0.00 in0.0 mm
01:00 PM 78.9°F26.1°C 66.1°F18.9°C 65% 8.0 mph SW12.9 kmh SW 15.1 mph24.3 kmh 30.36 in1028.1 mb 0.00 in0.0 mm 0.00 in0.0 mm 0.00 in0.0 mm
01:15 PM 79.0°F26.1°C 66.2°F19.0°C 65% 11.0 mph SW17.7 kmh SW 19.2 mph30.9 kmh 30.35 in1027.8 mb 0.00 in0.0 mm 0.00 in0.0 mm 0.00 in0.0 mm
01:30 PM 79.0°F26.1°C 65.8°F18.8°C 64% 8.0 mph SSW12.9 kmh SSW 16.2 mph26.1 kmh 30.35 in1027.8 mb 0.00 in0.0 mm 0.00 in0.0 mm 0.00 in0.0 mm
01:45 PM 78.5°F25.8°C 65.8°F18.8°C 65% 11.0 mph SSW17.7 kmh SSW 14.1 mph22.7 kmh 30.35 in1027.8 mb 0.00 in0.0 mm 0.00 in0.0 mm 0.00 in0.0 mm
02:00 PM 79.9°F26.6°C 65.3°F18.5°C 61% 17.0 mph SSW27.4 kmh SSW 22.2 mph35.7 kmh 30.34 in1027.4 mb 0.00 in0.0 mm 0.00 in0.0 mm 0.00 in0.0 mm
02:15 PM 80.1°F26.7°C 65.9°F18.8°C 62% 12.0 mph SSW19.3 kmh SSW 15.1 mph24.3 kmh 30.34 in1027.4 mb 0.00 in0.0 mm 0.00 in0.0 mm 0.00 in0.0 mm
02:30 PM 80.1°F26.7°C 65.9°F18.8°C 62% 5.0 mph SW8.0 kmh SW 13.1 mph21.1 kmh 30.34 in1027.4 mb 0.00 in0.0 mm 0.00 in0.0 mm 0.00 in0.0 mm
02:45 PM 79.7°F26.5°C 65.5°F18.6°C 62% 13.0 mph SSW20.9 kmh SSW 15.1 mph24.3 kmh 30.34 in1027.4 mb 0.00 in0.0 mm 0.00 in0.0 mm 0.00 in0.0 mm
03:00 PM 80.1°F26.7°C 65.9°F18.8°C 62% 9.0 mph SSW14.5 kmh SSW 15.1 mph24.3 kmh 30.33 in1027.1 mb 0.00 in0.0 mm 0.00 in0.0 mm 0.00 in0.0 mm
03:15 PM 79.0°F26.1°C 65.3°F18.5°C 63% 11.0 mph WSW17.7 kmh WSW 15.1 mph24.3 kmh 30.33 in1027.1 mb 0.00 in0.0 mm 0.00 in0.0 mm 0.00 in0.0 mm
03:30 PM 79.3°F26.3°C 66.1°F18.9°C 64% 10.0 mph S16.1 kmh S 12.1 mph19.5 kmh 30.33 in1027.1 mb 0.00 in0.0 mm 0.00 in0.0 mm 0.00 in0.0 mm
03:45 PM 78.7°F25.9°C 66.0°F18.9°C 65% 11.0 mph SSW17.7 kmh SSW 17.2 mph27.7 kmh 30.33 in1027.1 mb 0.00 in0.0 mm 0.00 in0.0 mm 0.00 in0.0 mm
04:00 PM 78.6°F25.9°C 65.9°F18.8°C 65% 2.0 mph S3.2 kmh S 9.1 mph14.6 kmh 30.32 in1026.8 mb 0.00 in0.0 mm 0.00 in0.0 mm 0.00 in0.0 mm
04:15 PM 79.1°F26.2°C 65.9°F18.8°C 64% 16.0 mph SSW25.7 kmh SSW 16.2 mph26.1 kmh 30.32 in1026.8 mb 0.00 in0.0 mm 0.00 in0.0 mm 0.00 in0.0 mm
04:30 PM 78.6°F25.9°C 65.9°F18.8°C 65% 13.0 mph SW20.9 kmh SW 15.1 mph24.3 kmh 30.32 in1026.8 mb 0.00 in0.0 mm 0.00 in0.0 mm 0.00 in0.0 mm
04:45 PM 78.1°F25.6°C 65.8°F18.8°C 66% 5.0 mph SW8.0 kmh SW 15.1 mph24.3 kmh 30.32 in1026.8 mb 0.00 in0.0 mm 0.00 in0.0 mm 0.00 in0.0 mm
05:00 PM 77.4°F25.2°C 65.6°F18.7°C 67% 6.0 mph SSW9.7 kmh SSW 13.1 mph21.1 kmh 30.32 in1026.8 mb 0.00 in0.0 mm 0.00 in0.0 mm 0.00 in0.0 mm
05:15 PM 77.0°F25.0°C 65.6°F18.7°C 68% 10.0 mph S16.1 kmh S 14.1 mph22.7 kmh 30.32 in1026.8 mb 0.00 in0.0 mm 0.00 in0.0 mm 0.00 in0.0 mm
05:30 PM 76.5°F24.7°C 65.6°F18.7°C 69% 9.0 mph SE14.5 kmh SE 12.1 mph19.5 kmh 30.33 in1027.1 mb 0.00 in0.0 mm 0.00 in0.0 mm 0.00 in0.0 mm
05:45 PM 75.8°F24.3°C 65.3°F18.5°C 70% 9.0 mph S14.5 kmh S 9.1 mph14.6 kmh 30.33 in1027.1 mb 0.00 in0.0 mm 0.00 in0.0 mm 0.00 in0.0 mm
06:00 PM 75.4°F24.1°C 65.7°F18.7°C 72% 4.0 mph S6.4 kmh S 13.1 mph21.1 kmh 30.33 in1027.1 mb 0.00 in0.0 mm 0.00 in0.0 mm 0.00 in0.0 mm
06:15 PM 74.7°F23.7°C 65.5°F18.6°C 73% 8.0 mph SSE12.9 kmh SSE 9.1 mph14.6 kmh 30.33 in1027.1 mb 0.00 in0.0 mm 0.00 in0.0 mm 0.00 in0.0 mm
06:30 PM 74.0°F23.3°C 65.2°F18.4°C 74% 1.0 mph SW1.6 kmh SW 4.0 mph6.4 kmh 30.34 in1027.4 mb 0.00 in0.0 mm 0.00 in0.0 mm 0.00 in0.0 mm
06:45 PM 73.6°F23.1°C 65.5°F18.6°C 76% 2.0 mph SSW3.2 kmh SSW 6.1 mph9.8 kmh 30.35 in1027.8 mb 0.00 in0.0 mm 0.00 in0.0 mm 0.00 in0.0 mm
07:00 PM 73.0°F22.8°C 65.3°F18.5°C 77% 9.0 mph S14.5 kmh S 12.1 mph19.5 kmh 30.35 in1027.8 mb 0.00 in0.0 mm 0.00 in0.0 mm 0.00 in0.0 mm
07:15 PM 72.7°F22.6°C 65.4°F18.6°C 78% 6.0 mph S9.7 kmh S 10.1 mph16.3 kmh 30.35 in1027.8 mb 0.00 in0.0 mm 0.00 in0.0 mm 0.00 in0.0 mm
07:30 PM 72.3°F22.4°C 65.4°F18.6°C 79% 2.0 mph S3.2 kmh S 10.1 mph16.3 kmh 30.36 in1028.1 mb 0.00 in0.0 mm 0.00 in0.0 mm 0.00 in0.0 mm
07:45 PM 71.5°F21.9°C 65.0°F18.3°C 80% 7.0 mph SW11.3 kmh SW 9.1 mph14.6 kmh 30.37 in1028.4 mb 0.00 in0.0 mm 0.00 in0.0 mm 0.00 in0.0 mm
08:00 PM 71.1°F21.7°C 64.9°F18.3°C 81% 3.0 mph SSW4.8 kmh SSW 6.1 mph9.8 kmh 30.37 in1028.4 mb 0.00 in0.0 mm 0.00 in0.0 mm 0.00 in0.0 mm
08:15 PM 70.5°F21.4°C 64.7°F18.2°C 82% 4.0 mph SSW6.4 kmh SSW 4.0 mph6.4 kmh 30.37 in1028.4 mb 0.00 in0.0 mm 0.00 in0.0 mm 0.00 in0.0 mm
08:30 PM 69.7°F20.9°C 64.3°F17.9°C 83% 3.0 mph SSW4.8 kmh SSW 5.1 mph8.2 kmh 30.38 in1028.8 mb 0.00 in0.0 mm 0.00 in0.0 mm 0.00 in0.0 mm
08:45 PM 69.4°F20.8°C 64.3°F17.9°C 84% 3.0 mph S4.8 kmh S 6.1 mph9.8 kmh 30.38 in1028.8 mb 0.00 in0.0 mm 0.00 in0.0 mm 0.00 in0.0 mm
09:00 PM 69.2°F20.7°C 64.2°F17.9°C 84% 3.0 mph S4.8 kmh S 6.1 mph9.8 kmh 30.38 in1028.8 mb 0.00 in0.0 mm 0.00 in0.0 mm 0.00 in0.0 mm
09:15 PM 69.0°F20.6°C 64.0°F17.8°C 84% 3.0 mph SW4.8 kmh SW 6.1 mph9.8 kmh 30.37 in1028.4 mb 0.00 in0.0 mm 0.00 in0.0 mm 0.00 in0.0 mm
09:30 PM 68.6°F20.3°C 63.6°F17.6°C 84% 4.0 mph SW6.4 kmh SW 6.1 mph9.8 kmh 30.38 in1028.8 mb 0.00 in0.0 mm 0.00 in0.0 mm 0.00 in0.0 mm
09:45 PM 68.2°F20.1°C 63.6°F17.6°C 85% 3.0 mph SSW4.8 kmh SSW 5.1 mph8.2 kmh 30.38 in1028.8 mb 0.00 in0.0 mm 0.00 in0.0 mm 0.00 in0.0 mm
10:00 PM 68.2°F20.1°C 63.6°F17.6°C 85% 6.0 mph SW9.7 kmh SW 6.1 mph9.8 kmh 30.38 in1028.8 mb 0.00 in0.0 mm 0.00 in0.0 mm 0.00 in0.0 mm
10:15 PM 67.8°F19.9°C 63.5°F17.5°C 86% 5.0 mph SW8.0 kmh SW 5.1 mph8.2 kmh 30.39 in1029.1 mb 0.00 in0.0 mm 0.00 in0.0 mm 0.00 in0.0 mm
10:30 PM 68.0°F20.0°C 63.4°F17.4°C 85% 6.0 mph SSW9.7 kmh SSW 7.1 mph11.4 kmh 30.39 in1029.1 mb 0.00 in0.0 mm 0.00 in0.0 mm 0.00 in0.0 mm
10:45 PM 67.7°F19.8°C 63.4°F17.4°C 86% 3.0 mph S4.8 kmh S 10.1 mph16.3 kmh 30.39 in1029.1 mb 0.00 in0.0 mm 0.00 in0.0 mm 0.00 in0.0 mm
11:00 PM 67.2°F19.6°C 62.9°F17.2°C 86% 3.0 mph S4.8 kmh S 6.1 mph9.8 kmh 30.38 in1028.8 mb 0.00 in0.0 mm 0.00 in0.0 mm 0.00 in0.0 mm
11:15 PM 66.8°F19.3°C 62.8°F17.1°C 87% 2.0 mph SSW3.2 kmh SSW 5.1 mph8.2 kmh 30.38 in1028.8 mb 0.00 in0.0 mm 0.00 in0.0 mm 0.00 in0.0 mm
11:30 PM 66.6°F19.2°C 63.0°F17.2°C 88% 2.0 mph SSW3.2 kmh SSW 7.1 mph11.4 kmh 30.39 in1029.1 mb 0.00 in0.0 mm 0.00 in0.0 mm 0.00 in0.0 mm
11:45 PM 66.3°F19.1°C 62.7°F17.1°C 88% 8.0 mph S12.9 kmh S 8.1 mph13.0 kmh 30.39 in1029.1 mb 0.00 in0.0 mm 0.00 in0.0 mm 0.00 in0.0 mm